sensor_id;sensor_type;location;lat;lon;timestamp;temperature;humidity
41939;DHT22;23057;48.554;14.454;2023-07-22T00:00:38;14.90;99.90
41939;DHT22;23057;48.554;14.454;2023-07-22T00:03:09;14.80;99.90
41939;DHT22;23057;48.554;14.454;2023-07-22T00:05:41;14.80;99.90
41939;DHT22;23057;48.554;14.454;2023-07-22T00:08:12;14.80;99.90
41939;DHT22;23057;48.554;14.454;2023-07-22T00:10:43;14.70;99.90
41939;DHT22;23057;48.554;14.454;2023-07-22T00:13:14;14.70;99.90
41939;DHT22;23057;48.554;14.454;2023-07-22T00:15:45;14.60;99.90
41939;DHT22;23057;48.554;14.454;2023-07-22T00:18:15;14.60;99.90
41939;DHT22;23057;48.554;14.454;2023-07-22T00:20:47;14.50;99.90
41939;DHT22;23057;48.554;14.454;2023-07-22T00:23:18;14.50;99.90
41939;DHT22;23057;48.554;14.454;2023-07-22T00:25:50;14.40;99.90
41939;DHT22;23057;48.554;14.454;2023-07-22T00:28:21;14.30;99.90
41939;DHT22;23057;48.554;14.454;2023-07-22T00:30:52;14.20;99.90
41939;DHT22;23057;48.554;14.454;2023-07-22T00:33:24;14.20;99.90
41939;DHT22;23057;48.554;14.454;2023-07-22T00:35:55;14.20;99.90
41939;DHT22;23057;48.554;14.454;2023-07-22T00:38:26;14.30;99.90
41939;DHT22;23057;48.554;14.454;2023-07-22T00:40:57;14.30;99.90
41939;DHT22;23057;48.554;14.454;2023-07-22T00:43:28;14.20;99.90
41939;DHT22;23057;48.554;14.454;2023-07-22T00:45:59;14.10;99.90
41939;DHT22;23057;48.554;14.454;2023-07-22T00:48:30;14.10;99.90
41939;DHT22;23057;48.554;14.454;2023-07-22T00:51:02;14.20;99.90
41939;DHT22;23057;48.554;14.454;2023-07-22T00:53:33;14.20;99.90
41939;DHT22;23057;48.554;14.454;2023-07-22T00:56:04;14.10;99.90
41939;DHT22;23057;48.554;14.454;2023-07-22T00:58:35;14.10;99.90
41939;DHT22;23057;48.554;14.454;2023-07-22T01:01:06;14.00;99.90
41939;DHT22;23057;48.554;14.454;2023-07-22T01:03:37;14.00;99.90
41939;DHT22;23057;48.554;14.454;2023-07-22T01:06:08;13.90;99.90
41939;DHT22;23057;48.554;14.454;2023-07-22T01:08:40;14.00;99.90
41939;DHT22;23057;48.554;14.454;2023-07-22T01:11:11;14.00;99.90
41939;DHT22;23057;48.554;14.454;2023-07-22T01:13:43;14.00;99.90
41939;DHT22;23057;48.554;14.454;2023-07-22T01:16:14;13.90;99.90
41939;DHT22;23057;48.554;14.454;2023-07-22T01:18:45;13.80;99.90
41939;DHT22;23057;48.554;14.454;2023-07-22T01:21:16;13.80;99.90
41939;DHT22;23057;48.554;14.454;2023-07-22T01:23:51;13.90;99.90
41939;DHT22;23057;48.554;14.454;2023-07-22T01:26:23;14.00;99.90
41939;DHT22;23057;48.554;14.454;2023-07-22T01:29:05;14.10;99.90
41939;DHT22;23057;48.554;14.454;2023-07-22T01:31:37;14.10;99.90
41939;DHT22;23057;48.554;14.454;2023-07-22T01:34:08;14.20;99.90
41939;DHT22;23057;48.554;14.454;2023-07-22T01:36:39;14.20;99.90
41939;DHT22;23057;48.554;14.454;2023-07-22T01:39:10;14.20;99.90
41939;DHT22;23057;48.554;14.454;2023-07-22T01:41:44;14.30;99.90
41939;DHT22;23057;48.554;14.454;2023-07-22T01:44:16;14.30;99.90
41939;DHT22;23057;48.554;14.454;2023-07-22T01:46:47;14.30;99.90
41939;DHT22;23057;48.554;14.454;2023-07-22T01:49:17;14.30;99.90
41939;DHT22;23057;48.554;14.454;2023-07-22T01:51:48;14.30;99.90
41939;DHT22;23057;48.554;14.454;2023-07-22T01:54:19;14.30;99.90
41939;DHT22;23057;48.554;14.454;2023-07-22T01:56:50;14.30;99.90
41939;DHT22;23057;48.554;14.454;2023-07-22T01:59:21;14.20;99.90
41939;DHT22;23057;48.554;14.454;2023-07-22T02:01:52;14.20;99.90
41939;DHT22;23057;48.554;14.454;2023-07-22T02:04:23;14.10;99.90
41939;DHT22;23057;48.554;14.454;2023-07-22T02:06:54;14.00;99.90
41939;DHT22;23057;48.554;14.454;2023-07-22T02:09:24;14.00;99.90
41939;DHT22;23057;48.554;14.454;2023-07-22T02:11:55;13.80;99.90
41939;DHT22;23057;48.554;14.454;2023-07-22T02:14:26;13.80;99.90
41939;DHT22;23057;48.554;14.454;2023-07-22T02:16:57;13.70;99.90
41939;DHT22;23057;48.554;14.454;2023-07-22T02:19:28;13.60;99.90
41939;DHT22;23057;48.554;14.454;2023-07-22T02:21:59;13.50;99.90
41939;DHT22;23057;48.554;14.454;2023-07-22T02:24:30;13.40;99.90
41939;DHT22;23057;48.554;14.454;2023-07-22T02:27:02;13.50;99.90
41939;DHT22;23057;48.554;14.454;2023-07-22T02:29:32;13.50;99.90
41939;DHT22;23057;48.554;14.454;2023-07-22T02:32:04;13.50;99.90
41939;DHT22;23057;48.554;14.454;2023-07-22T02:34:35;13.40;99.90
41939;DHT22;23057;48.554;14.454;2023-07-22T02:37:06;13.40;99.90
41939;DHT22;23057;48.554;14.454;2023-07-22T02:39:37;13.30;99.90
41939;DHT22;23057;48.554;14.454;2023-07-22T02:42:08;13.30;99.90
41939;DHT22;23057;48.554;14.454;2023-07-22T02:44:39;13.20;99.90
41939;DHT22;23057;48.554;14.454;2023-07-22T02:47:09;13.20;99.90
41939;DHT22;23057;48.554;14.454;2023-07-22T02:49:40;13.20;99.90
41939;DHT22;23057;48.554;14.454;2023-07-22T02:52:11;13.20;99.90
41939;DHT22;23057;48.554;14.454;2023-07-22T02:54:42;13.10;99.90
41939;DHT22;23057;48.554;14.454;2023-07-22T02:57:12;13.00;99.90
41939;DHT22;23057;48.554;14.454;2023-07-22T02:59:43;12.90;99.90
41939;DHT22;23057;48.554;14.454;2023-07-22T03:02:14;12.90;99.90
41939;DHT22;23057;48.554;14.454;2023-07-22T03:04:45;12.80;99.90
41939;DHT22;23057;48.554;14.454;2023-07-22T03:07:15;12.60;99.90
41939;DHT22;23057;48.554;14.454;2023-07-22T03:09:47;12.60;99.90
41939;DHT22;23057;48.554;14.454;2023-07-22T03:12:17;12.40;99.90
41939;DHT22;23057;48.554;14.454;2023-07-22T03:14:48;12.50;99.90
41939;DHT22;23057;48.554;14.454;2023-07-22T03:17:20;12.40;99.90
41939;DHT22;23057;48.554;14.454;2023-07-22T03:19:51;12.50;99.90
41939;DHT22;23057;48.554;14.454;2023-07-22T03:22:22;12.50;99.90
41939;DHT22;23057;48.554;14.454;2023-07-22T03:24:53;12.50;99.90
41939;DHT22;23057;48.554;14.454;2023-07-22T03:27:24;12.60;99.90
41939;DHT22;23057;48.554;14.454;2023-07-22T03:29:54;12.60;99.90
41939;DHT22;23057;48.554;14.454;2023-07-22T03:32:25;12.70;99.90
41939;DHT22;23057;48.554;14.454;2023-07-22T03:34:56;12.70;99.90
41939;DHT22;23057;48.554;14.454;2023-07-22T03:37:27;12.80;99.90
41939;DHT22;23057;48.554;14.454;2023-07-22T03:39:59;12.80;99.90
41939;DHT22;23057;48.554;14.454;2023-07-22T03:42:30;12.90;99.90
41939;DHT22;23057;48.554;14.454;2023-07-22T03:45:00;13.40;99.90
41939;DHT22;23057;48.554;14.454;2023-07-22T03:47:31;13.90;99.90
41939;DHT22;23057;48.554;14.454;2023-07-22T03:50:02;14.20;99.90
41939;DHT22;23057;48.554;14.454;2023-07-22T03:52:34;14.70;23.10
41939;DHT22;23057;48.554;14.454;2023-07-22T03:55:05;14.90;99.90
41939;DHT22;23057;48.554;14.454;2023-07-22T03:57:36;15.50;99.90
41939;DHT22;23057;48.554;14.454;2023-07-22T04:00:07;15.80;1.00
41939;DHT22;23057;48.554;14.454;2023-07-22T04:02:41;16.50;99.90
41939;DHT22;23057;48.554;14.454;2023-07-22T04:05:12;16.90;99.90
41939;DHT22;23057;48.554;14.454;2023-07-22T04:07:44;17.30;19.70
41939;DHT22;23057;48.554;14.454;2023-07-22T04:10:15;17.60;1.00
41939;DHT22;23057;48.554;14.454;2023-07-22T04:12:46;17.80;1.00
41939;DHT22;23057;48.554;14.454;2023-07-22T04:15:17;18.20;1.00
41939;DHT22;23057;48.554;14.454;2023-07-22T04:17:48;18.50;1.00
41939;DHT22;23057;48.554;14.454;2023-07-22T04:20:19;18.70;1.00
41939;DHT22;23057;48.554;14.454;2023-07-22T04:22:50;19.90;99.90
41939;DHT22;23057;48.554;14.454;2023-07-22T04:25:20;20.50;99.90
41939;DHT22;23057;48.554;14.454;2023-07-22T04:27:51;20.00;99.90
41939;DHT22;23057;48.554;14.454;2023-07-22T04:30:22;19.90;99.90
41939;DHT22;23057;48.554;14.454;2023-07-22T04:32:54;20.10;99.90
41939;DHT22;23057;48.554;14.454;2023-07-22T04:35:25;20.60;99.90
41939;DHT22;23057;48.554;14.454;2023-07-22T04:37:56;20.90;99.90
41939;DHT22;23057;48.554;14.454;2023-07-22T04:40:27;21.20;99.90
41939;DHT22;23057;48.554;14.454;2023-07-22T04:42:58;21.60;99.90
41939;DHT22;23057;48.554;14.454;2023-07-22T04:45:29;21.70;99.90
41939;DHT22;23057;48.554;14.454;2023-07-22T04:48:01;21.80;99.90
41939;DHT22;23057;48.554;14.454;2023-07-22T04:50:33;21.90;99.90
41939;DHT22;23057;48.554;14.454;2023-07-22T04:53:04;21.80;99.90
41939;DHT22;23057;48.554;14.454;2023-07-22T04:55:35;22.00;99.90
41939;DHT22;23057;48.554;14.454;2023-07-22T04:58:07;22.40;99.90
41939;DHT22;23057;48.554;14.454;2023-07-22T05:00:40;22.90;99.90
41939;DHT22;23057;48.554;14.454;2023-07-22T05:03:12;23.50;99.90
41939;DHT22;23057;48.554;14.454;2023-07-22T05:05:44;23.50;99.90
41939;DHT22;23057;48.554;14.454;2023-07-22T05:08:14;23.50;99.90
41939;DHT22;23057;48.554;14.454;2023-07-22T05:10:46;23.30;99.90
41939;DHT22;23057;48.554;14.454;2023-07-22T05:13:17;23.00;99.90
41939;DHT22;23057;48.554;14.454;2023-07-22T05:15:48;22.50;99.90
41939;DHT22;23057;48.554;14.454;2023-07-22T05:18:19;22.60;99.90
41939;DHT22;23057;48.554;14.454;2023-07-22T05:20:50;22.90;99.90
41939;DHT22;23057;48.554;14.454;2023-07-22T05:23:20;22.80;99.90
41939;DHT22;23057;48.554;14.454;2023-07-22T05:25:52;23.10;99.90
41939;DHT22;23057;48.554;14.454;2023-07-22T05:28:24;22.70;99.90
41939;DHT22;23057;48.554;14.454;2023-07-22T05:30:56;23.40;99.90
41939;DHT22;23057;48.554;14.454;2023-07-22T05:33:26;24.40;99.90
41939;DHT22;23057;48.554;14.454;2023-07-22T05:35:57;24.60;99.90
41939;DHT22;23057;48.554;14.454;2023-07-22T05:38:28;26.00;99.90
41939;DHT22;23057;48.554;14.454;2023-07-22T05:40:59;23.90;99.90
41939;DHT22;23057;48.554;14.454;2023-07-22T05:43:30;22.00;99.90
41939;DHT22;23057;48.554;14.454;2023-07-22T05:46:01;22.40;99.90
41939;DHT22;23057;48.554;14.454;2023-07-22T05:48:32;21.50;99.90
41939;DHT22;23057;48.554;14.454;2023-07-22T05:51:02;22.40;99.90
41939;DHT22;23057;48.554;14.454;2023-07-22T05:53:33;23.90;99.90
41939;DHT22;23057;48.554;14.454;2023-07-22T05:56:04;23.80;99.90
41939;DHT22;23057;48.554;14.454;2023-07-22T05:58:35;23.80;99.90
41939;DHT22;23057;48.554;14.454;2023-07-22T06:01:06;24.70;99.90
41939;DHT22;23057;48.554;14.454;2023-07-22T06:03:37;23.20;99.90
41939;DHT22;23057;48.554;14.454;2023-07-22T06:06:08;24.30;99.90
41939;DHT22;23057;48.554;14.454;2023-07-22T06:08:39;24.30;99.90
41939;DHT22;23057;48.554;14.454;2023-07-22T06:11:09;25.20;99.90
41939;DHT22;23057;48.554;14.454;2023-07-22T06:13:40;25.50;99.90
41939;DHT22;23057;48.554;14.454;2023-07-22T06:16:11;24.50;99.90
41939;DHT22;23057;48.554;14.454;2023-07-22T06:18:42;24.50;99.90
41939;DHT22;23057;48.554;14.454;2023-07-22T06:21:13;24.70;99.90
41939;DHT22;23057;48.554;14.454;2023-07-22T06:23:44;24.60;99.90
41939;DHT22;23057;48.554;14.454;2023-07-22T06:26:15;25.10;99.90
41939;DHT22;23057;48.554;14.454;2023-07-22T06:28:45;25.30;99.90
41939;DHT22;23057;48.554;14.454;2023-07-22T06:31:16;25.40;99.90
41939;DHT22;23057;48.554;14.454;2023-07-22T06:33:48;25.60;99.90
41939;DHT22;23057;48.554;14.454;2023-07-22T06:36:19;24.70;99.90
41939;DHT22;23057;48.554;14.454;2023-07-22T06:38:50;25.20;99.90
41939;DHT22;23057;48.554;14.454;2023-07-22T06:41:21;25.70;99.90
41939;DHT22;23057;48.554;14.454;2023-07-22T06:43:54;25.60;99.90
41939;DHT22;23057;48.554;14.454;2023-07-22T06:46:25;25.40;99.90
41939;DHT22;23057;48.554;14.454;2023-07-22T06:48:56;25.20;99.90
41939;DHT22;23057;48.554;14.454;2023-07-22T06:51:27;23.80;99.90
41939;DHT22;23057;48.554;14.454;2023-07-22T06:53:58;23.70;99.90
41939;DHT22;23057;48.554;14.454;2023-07-22T06:56:28;23.50;99.90
41939;DHT22;23057;48.554;14.454;2023-07-22T06:58:59;23.50;99.90
41939;DHT22;23057;48.554;14.454;2023-07-22T07:01:30;24.10;99.90
41939;DHT22;23057;48.554;14.454;2023-07-22T07:04:01;24.00;99.90
41939;DHT22;23057;48.554;14.454;2023-07-22T07:06:32;23.50;99.90
41939;DHT22;23057;48.554;14.454;2023-07-22T07:09:02;22.20;99.90
41939;DHT22;23057;48.554;14.454;2023-07-22T07:11:34;22.20;99.90
41939;DHT22;23057;48.554;14.454;2023-07-22T07:14:06;22.40;99.90
41939;DHT22;23057;48.554;14.454;2023-07-22T07:16:37;22.10;99.90
41939;DHT22;23057;48.554;14.454;2023-07-22T07:19:08;22.60;99.90
41939;DHT22;23057;48.554;14.454;2023-07-22T07:21:39;21.90;99.90
41939;DHT22;23057;48.554;14.454;2023-07-22T07:24:09;22.00;99.90
41939;DHT22;23057;48.554;14.454;2023-07-22T07:26:40;22.10;99.90
41939;DHT22;23057;48.554;14.454;2023-07-22T07:29:11;22.40;99.90
41939;DHT22;23057;48.554;14.454;2023-07-22T07:31:42;22.80;99.90
41939;DHT22;23057;48.554;14.454;2023-07-22T07:34:13;22.90;99.90
41939;DHT22;23057;48.554;14.454;2023-07-22T07:36:44;22.40;99.90
41939;DHT22;23057;48.554;14.454;2023-07-22T07:39:15;22.40;99.90
41939;DHT22;23057;48.554;14.454;2023-07-22T07:41:46;23.00;99.90
41939;DHT22;23057;48.554;14.454;2023-07-22T07:44:16;23.20;99.90
41939;DHT22;23057;48.554;14.454;2023-07-22T07:46:47;23.40;99.90
41939;DHT22;23057;48.554;14.454;2023-07-22T07:49:18;23.60;99.90
41939;DHT22;23057;48.554;14.454;2023-07-22T07:51:49;23.20;99.90
41939;DHT22;23057;48.554;14.454;2023-07-22T07:54:20;22.90;99.90
41939;DHT22;23057;48.554;14.454;2023-07-22T07:56:51;22.70;99.90
41939;DHT22;23057;48.554;14.454;2023-07-22T07:59:22;23.10;99.90
41939;DHT22;23057;48.554;14.454;2023-07-22T08:01:53;23.40;99.90
41939;DHT22;23057;48.554;14.454;2023-07-22T08:04:23;22.70;99.90
41939;DHT22;23057;48.554;14.454;2023-07-22T08:06:54;22.40;99.90
41939;DHT22;23057;48.554;14.454;2023-07-22T08:09:25;22.00;99.90
41939;DHT22;23057;48.554;14.454;2023-07-22T08:11:56;22.20;99.90
41939;DHT22;23057;48.554;14.454;2023-07-22T08:14:27;22.50;99.90
41939;DHT22;23057;48.554;14.454;2023-07-22T08:16:58;22.60;99.90
41939;DHT22;23057;48.554;14.454;2023-07-22T08:19:28;22.60;99.90
41939;DHT22;23057;48.554;14.454;2023-07-22T08:21:59;22.80;99.90
41939;DHT22;23057;48.554;14.454;2023-07-22T08:24:30;23.60;99.90
41939;DHT22;23057;48.554;14.454;2023-07-22T08:27:01;23.40;99.90
41939;DHT22;23057;48.554;14.454;2023-07-22T08:29:32;23.60;99.90
41939;DHT22;23057;48.554;14.454;2023-07-22T08:32:03;22.70;99.90
41939;DHT22;23057;48.554;14.454;2023-07-22T08:34:34;22.30;99.90
41939;DHT22;23057;48.554;14.454;2023-07-22T08:37:05;22.60;99.90
41939;DHT22;23057;48.554;14.454;2023-07-22T08:39:36;22.90;99.90
41939;DHT22;23057;48.554;14.454;2023-07-22T08:42:08;22.80;99.90
41939;DHT22;23057;48.554;14.454;2023-07-22T08:44:44;23.00;99.90
41939;DHT22;23057;48.554;14.454;2023-07-22T08:47:20;22.80;99.90
41939;DHT22;23057;48.554;14.454;2023-07-22T08:49:57;22.90;99.90
41939;DHT22;23057;48.554;14.454;2023-07-22T08:52:33;23.10;99.90
41939;DHT22;23057;48.554;14.454;2023-07-22T08:55:05;23.20;99.90
41939;DHT22;23057;48.554;14.454;2023-07-22T08:57:37;22.90;99.90
41939;DHT22;23057;48.554;14.454;2023-07-22T09:00:09;22.80;99.90
41939;DHT22;23057;48.554;14.454;2023-07-22T09:02:42;23.10;99.90
41939;DHT22;23057;48.554;14.454;2023-07-22T09:05:13;23.00;99.90
41939;DHT22;23057;48.554;14.454;2023-07-22T09:07:47;23.30;99.90
41939;DHT22;23057;48.554;14.454;2023-07-22T09:10:19;23.80;99.90
41939;DHT22;23057;48.554;14.454;2023-07-22T09:12:51;23.50;99.90
41939;DHT22;23057;48.554;14.454;2023-07-22T09:15:24;23.30;99.90
41939;DHT22;23057;48.554;14.454;2023-07-22T09:17:55;23.80;99.90
41939;DHT22;23057;48.554;14.454;2023-07-22T09:20:26;23.60;99.90
41939;DHT22;23057;48.554;14.454;2023-07-22T09:22:59;23.80;99.90
41939;DHT22;23057;48.554;14.454;2023-07-22T09:25:31;23.60;99.90
41939;DHT22;23057;48.554;14.454;2023-07-22T09:28:02;23.10;99.90
41939;DHT22;23057;48.554;14.454;2023-07-22T09:30:35;22.80;99.90
41939;DHT22;23057;48.554;14.454;2023-07-22T09:33:22;22.60;99.90
41939;DHT22;23057;48.554;14.454;2023-07-22T09:35:54;22.60;99.90
41939;DHT22;23057;48.554;14.454;2023-07-22T09:38:25;23.60;99.90
41939;DHT22;23057;48.554;14.454;2023-07-22T09:40:56;23.50;99.90
41939;DHT22;23057;48.554;14.454;2023-07-22T09:43:29;23.90;99.90
41939;DHT22;23057;48.554;14.454;2023-07-22T09:46:09;23.80;99.90
41939;DHT22;23057;48.554;14.454;2023-07-22T09:48:44;23.40;99.90
41939;DHT22;23057;48.554;14.454;2023-07-22T09:51:15;23.90;99.90
41939;DHT22;23057;48.554;14.454;2023-07-22T09:53:48;24.00;99.90
41939;DHT22;23057;48.554;14.454;2023-07-22T09:56:33;23.20;99.90
41939;DHT22;23057;48.554;14.454;2023-07-22T09:59:17;23.60;99.90
41939;DHT22;23057;48.554;14.454;2023-07-22T10:01:50;24.00;99.90
41939;DHT22;23057;48.554;14.454;2023-07-22T10:04:25;24.00;99.90
41939;DHT22;23057;48.554;14.454;2023-07-22T10:07:05;23.70;99.90
41939;DHT22;23057;48.554;14.454;2023-07-22T10:09:39;24.00;99.90
41939;DHT22;23057;48.554;14.454;2023-07-22T10:12:12;23.60;99.90
41939;DHT22;23057;48.554;14.454;2023-07-22T10:14:45;23.90;99.90
41939;DHT22;23057;48.554;14.454;2023-07-22T10:17:19;23.90;99.90
41939;DHT22;23057;48.554;14.454;2023-07-22T10:19:52;23.70;99.90
41939;DHT22;23057;48.554;14.454;2023-07-22T10:22:24;23.60;99.90
41939;DHT22;23057;48.554;14.454;2023-07-22T10:24:57;23.70;99.90
41939;DHT22;23057;48.554;14.454;2023-07-22T10:27:30;23.90;99.90
41939;DHT22;23057;48.554;14.454;2023-07-22T10:30:03;24.00;99.90
41939;DHT22;23057;48.554;14.454;2023-07-22T10:32:40;23.60;99.90
41939;DHT22;23057;48.554;14.454;2023-07-22T10:38:15;24.50;99.90
41939;DHT22;23057;48.554;14.454;2023-07-22T10:40:51;24.00;99.90
41939;DHT22;23057;48.554;14.454;2023-07-22T10:43:34;24.40;99.90
41939;DHT22;23057;48.554;14.454;2023-07-22T10:46:10;24.20;99.90
41939;DHT22;23057;48.554;14.454;2023-07-22T10:48:43;23.20;99.90
41939;DHT22;23057;48.554;14.454;2023-07-22T10:51:15;23.40;99.90
41939;DHT22;23057;48.554;14.454;2023-07-22T10:53:47;24.00;99.90
41939;DHT22;23057;48.554;14.454;2023-07-22T10:56:19;24.30;99.90
41939;DHT22;23057;48.554;14.454;2023-07-22T10:58:57;24.00;99.90
41939;DHT22;23057;48.554;14.454;2023-07-22T11:01:35;24.30;99.90
41939;DHT22;23057;48.554;14.454;2023-07-22T11:04:22;24.10;99.90
41939;DHT22;23057;48.554;14.454;2023-07-22T11:07:06;23.90;99.90
41939;DHT22;23057;48.554;14.454;2023-07-22T11:09:38;24.50;99.90
41939;DHT22;23057;48.554;14.454;2023-07-22T11:12:16;25.00;99.90
41939;DHT22;23057;48.554;14.454;2023-07-22T11:14:53;24.70;99.90
41939;DHT22;23057;48.554;14.454;2023-07-22T11:17:34;24.50;99.90
41939;DHT22;23057;48.554;14.454;2023-07-22T11:20:05;24.40;99.90
41939;DHT22;23057;48.554;14.454;2023-07-22T11:22:39;24.20;99.90
41939;DHT22;23057;48.554;14.454;2023-07-22T11:25:17;24.00;99.90
41939;DHT22;23057;48.554;14.454;2023-07-22T11:27:49;24.20;99.90
41939;DHT22;23057;48.554;14.454;2023-07-22T11:30:20;24.10;99.90
41939;DHT22;23057;48.554;14.454;2023-07-22T11:32:58;24.10;99.90
41939;DHT22;23057;48.554;14.454;2023-07-22T11:35:29;23.90;99.90
41939;DHT22;23057;48.554;14.454;2023-07-22T11:38:01;24.00;99.90
41939;DHT22;23057;48.554;14.454;2023-07-22T11:40:34;24.00;99.90
41939;DHT22;23057;48.554;14.454;2023-07-22T11:43:05;23.90;99.90
41939;DHT22;23057;48.554;14.454;2023-07-22T11:45:40;24.50;99.90
41939;DHT22;23057;48.554;14.454;2023-07-22T11:48:12;25.10;99.90
41939;DHT22;23057;48.554;14.454;2023-07-22T11:50:43;25.20;99.90
41939;DHT22;23057;48.554;14.454;2023-07-22T11:53:14;25.70;99.90
41939;DHT22;23057;48.554;14.454;2023-07-22T11:55:45;24.70;99.90
41939;DHT22;23057;48.554;14.454;2023-07-22T11:58:27;24.40;99.90
41939;DHT22;23057;48.554;14.454;2023-07-22T12:01:03;24.00;99.90
41939;DHT22;23057;48.554;14.454;2023-07-22T12:03:40;24.60;99.90
41939;DHT22;23057;48.554;14.454;2023-07-22T12:06:11;24.90;99.90
41939;DHT22;23057;48.554;14.454;2023-07-22T12:08:45;24.80;99.90
41939;DHT22;23057;48.554;14.454;2023-07-22T12:11:22;25.30;99.90
41939;DHT22;23057;48.554;14.454;2023-07-22T12:14:07;25.30;99.90
41939;DHT22;23057;48.554;14.454;2023-07-22T12:16:42;24.70;99.90
41939;DHT22;23057;48.554;14.454;2023-07-22T12:19:13;24.40;99.90
41939;DHT22;23057;48.554;14.454;2023-07-22T12:21:44;24.50;99.90
41939;DHT22;23057;48.554;14.454;2023-07-22T12:24:15;24.20;99.90
41939;DHT22;23057;48.554;14.454;2023-07-22T12:26:46;23.80;99.90
41939;DHT22;23057;48.554;14.454;2023-07-22T12:29:17;23.50;99.90
41939;DHT22;23057;48.554;14.454;2023-07-22T12:31:48;24.10;99.90
41939;DHT22;23057;48.554;14.454;2023-07-22T12:34:19;24.30;99.90
41939;DHT22;23057;48.554;14.454;2023-07-22T12:36:50;24.00;99.90
41939;DHT22;23057;48.554;14.454;2023-07-22T12:39:20;23.90;99.90
41939;DHT22;23057;48.554;14.454;2023-07-22T12:41:51;24.20;99.90
41939;DHT22;23057;48.554;14.454;2023-07-22T12:44:22;24.70;99.90
41939;DHT22;23057;48.554;14.454;2023-07-22T12:46:53;25.10;99.90
41939;DHT22;23057;48.554;14.454;2023-07-22T12:49:23;25.20;99.90
41939;DHT22;23057;48.554;14.454;2023-07-22T12:51:54;25.10;99.90
41939;DHT22;23057;48.554;14.454;2023-07-22T12:54:25;25.00;99.90
41939;DHT22;23057;48.554;14.454;2023-07-22T12:56:56;24.40;99.90
41939;DHT22;23057;48.554;14.454;2023-07-22T12:59:27;24.70;99.90
41939;DHT22;23057;48.554;14.454;2023-07-22T13:01:58;25.10;99.90
41939;DHT22;23057;48.554;14.454;2023-07-22T13:04:29;25.40;99.90
41939;DHT22;23057;48.554;14.454;2023-07-22T13:07:00;25.40;99.90
41939;DHT22;23057;48.554;14.454;2023-07-22T13:09:31;25.90;99.90
41939;DHT22;23057;48.554;14.454;2023-07-22T13:12:01;25.70;99.90
41939;DHT22;23057;48.554;14.454;2023-07-22T13:14:32;25.30;99.90
41939;DHT22;23057;48.554;14.454;2023-07-22T13:17:03;25.80;99.90
41939;DHT22;23057;48.554;14.454;2023-07-22T13:19:34;25.60;99.90
41939;DHT22;23057;48.554;14.454;2023-07-22T13:22:05;25.60;99.90
41939;DHT22;23057;48.554;14.454;2023-07-22T13:24:36;25.30;99.90
41939;DHT22;23057;48.554;14.454;2023-07-22T13:27:07;24.90;99.90
41939;DHT22;23057;48.554;14.454;2023-07-22T13:29:38;24.50;99.90
41939;DHT22;23057;48.554;14.454;2023-07-22T13:32:08;24.40;99.90
41939;DHT22;23057;48.554;14.454;2023-07-22T13:34:39;24.90;99.90
41939;DHT22;23057;48.554;14.454;2023-07-22T13:37:10;24.80;99.90
41939;DHT22;23057;48.554;14.454;2023-07-22T13:39:41;24.80;99.90
41939;DHT22;23057;48.554;14.454;2023-07-22T13:42:12;24.70;99.90
41939;DHT22;23057;48.554;14.454;2023-07-22T13:44:43;24.90;99.90
41939;DHT22;23057;48.554;14.454;2023-07-22T13:47:13;24.50;99.90
41939;DHT22;23057;48.554;14.454;2023-07-22T13:49:44;24.00;99.90
41939;DHT22;23057;48.554;14.454;2023-07-22T13:52:15;23.80;99.90
41939;DHT22;23057;48.554;14.454;2023-07-22T13:54:46;24.10;99.90
41939;DHT22;23057;48.554;14.454;2023-07-22T13:57:16;24.40;99.90
41939;DHT22;23057;48.554;14.454;2023-07-22T13:59:47;24.60;99.90
41939;DHT22;23057;48.554;14.454;2023-07-22T14:02:19;24.70;99.90
41939;DHT22;23057;48.554;14.454;2023-07-22T14:04:50;24.50;99.90
41939;DHT22;23057;48.554;14.454;2023-07-22T14:07:21;24.60;99.90
41939;DHT22;23057;48.554;14.454;2023-07-22T14:09:52;24.80;99.90
41939;DHT22;23057;48.554;14.454;2023-07-22T14:12:23;24.60;99.90
41939;DHT22;23057;48.554;14.454;2023-07-22T14:14:54;24.20;99.90
41939;DHT22;23057;48.554;14.454;2023-07-22T14:17:25;24.10;99.90
41939;DHT22;23057;48.554;14.454;2023-07-22T14:19:56;23.90;99.90
41939;DHT22;23057;48.554;14.454;2023-07-22T14:22:27;23.70;99.90
41939;DHT22;23057;48.554;14.454;2023-07-22T14:24:58;23.60;99.90
41939;DHT22;23057;48.554;14.454;2023-07-22T14:27:28;23.30;99.90
41939;DHT22;23057;48.554;14.454;2023-07-22T14:29:59;23.10;99.90
41939;DHT22;23057;48.554;14.454;2023-07-22T14:32:30;23.30;99.90
41939;DHT22;23057;48.554;14.454;2023-07-22T14:35:01;23.50;99.90
41939;DHT22;23057;48.554;14.454;2023-07-22T14:37:35;23.50;99.90
41939;DHT22;23057;48.554;14.454;2023-07-22T14:40:08;23.40;99.90
41939;DHT22;23057;48.554;14.454;2023-07-22T14:42:40;23.40;99.90
41939;DHT22;23057;48.554;14.454;2023-07-22T14:45:11;23.80;99.90
41939;DHT22;23057;48.554;14.454;2023-07-22T14:47:42;24.10;99.90
41939;DHT22;23057;48.554;14.454;2023-07-22T14:50:12;24.10;99.90
41939;DHT22;23057;48.554;14.454;2023-07-22T14:52:43;24.00;99.90
41939;DHT22;23057;48.554;14.454;2023-07-22T14:55:14;24.40;99.90
41939;DHT22;23057;48.554;14.454;2023-07-22T14:57:45;24.40;99.90
41939;DHT22;23057;48.554;14.454;2023-07-22T15:00:17;24.30;99.90
41939;DHT22;23057;48.554;14.454;2023-07-22T15:02:48;24.00;99.90
41939;DHT22;23057;48.554;14.454;2023-07-22T15:05:19;24.20;99.90
41939;DHT22;23057;48.554;14.454;2023-07-22T15:07:50;24.30;99.90
41939;DHT22;23057;48.554;14.454;2023-07-22T15:10:21;24.10;99.90
41939;DHT22;23057;48.554;14.454;2023-07-22T15:12:52;24.10;99.90
41939;DHT22;23057;48.554;14.454;2023-07-22T15:15:22;24.30;99.90
41939;DHT22;23057;48.554;14.454;2023-07-22T15:17:53;24.10;99.90
41939;DHT22;23057;48.554;14.454;2023-07-22T15:20:24;23.70;99.90
41939;DHT22;23057;48.554;14.454;2023-07-22T15:22:55;23.60;99.90
41939;DHT22;23057;48.554;14.454;2023-07-22T15:25:26;23.50;99.90
41939;DHT22;23057;48.554;14.454;2023-07-22T15:27:57;23.50;99.90
41939;DHT22;23057;48.554;14.454;2023-07-22T15:30:27;23.60;99.90
41939;DHT22;23057;48.554;14.454;2023-07-22T15:32:58;23.50;99.90
41939;DHT22;23057;48.554;14.454;2023-07-22T15:35:29;23.90;99.90
41939;DHT22;23057;48.554;14.454;2023-07-22T15:38:00;24.10;99.90
41939;DHT22;23057;48.554;14.454;2023-07-22T15:40:34;24.20;99.90
41939;DHT22;23057;48.554;14.454;2023-07-22T15:43:06;23.90;99.90
41939;DHT22;23057;48.554;14.454;2023-07-22T15:45:37;23.90;99.90
41939;DHT22;23057;48.554;14.454;2023-07-22T15:48:07;23.70;99.90